Olathe, KS

4:36 PM CDT on May 29, 2015 (GMT -0500)
Northgate Meadows | | Change Station
CLOSE
Current Station
Personal Weather Station
Location: Olathe, KS
Elevation: 1053 ft
Nearby Weather Stations

Elev 1053 ft 38.90 °N, 94.80 °W | Updated 11 seconds ago

Rain
Rain
68.5 °F
Feels Like 68.5 °F
N
1.8
Wind Variable Wind from NE
Gusts 2.5 mph

Today
High -- | Low -- °F
--% Chance of Precip.
Yesterday
High -- | Low -- °F
Precip. -- in
5:57 AM 8:36 PM
Waxing Gibbous, 86% visible
Pressure 29.96 in
Visibility 10.0 miles
Clouds Mostly Cloudy 1700 ft
Mostly Cloudy 4400 ft
Overcast 10000 ft
Dew Point 66 °F
Humidity 92%
Rainfall 0.72 in
Snow Depth Not available.
UV 2.0 out of 12
Pollen .90 out of 12
Air Quality Not available.
Flu Activity No Activity
METAR KOJC 292053Z 18008KT 10SM -RA BKN017 BKN044 OVC100 21/19 A2998 RMK AO2 SLP144 P0002 60007 T02060194 56010

More Conditions Fewer Conditions

Pressure 29.96 in
Visibility 10.0 miles
Clouds Mostly Cloudy 1700 ft
Mostly Cloudy 4400 ft
Overcast 10000 ft
Dew Point 66 °F
Humidity 92%
Rainfall 0.72 in
Snow Depth Not available.
UV 2.0 out of 12
Pollen .90 out of 12
Air Quality Not available.
Flu Activity No Activity
METAR KOJC 292053Z 18008KT 10SM -RA BKN017 BKN044 OVC100 21/19 A2998 RMK AO2 SLP144 P0002 60007 T02060194 56010

More Conditions Fewer Conditions

10-Day Weather Forecast

Almanac

Astronomy

May. 29, 2015 Rise Set
Actual Time
Civil Twilight
Nautical Twilight
Astronomical Twilight
Moon
Length of Visible Light
Length of Day
Tomorrow will be .
, % of the Moon is Illuminated

Today's Extremes

State Highs State Lows

Community

WunderPhotos

Upload Photos

1,825,366 photos uploaded!

WunderBlogs® & News

Nearby

Air Quality

  Air Quality AQ Index Pollutant
Not available.

Snow Depth

Station Depth Elevation

Earthquake Activity

City Distance Mag. Time & Date
Minimum magnitude displayed is 2.5.

Coastal Water Temperatures

Place Temperature

Stations

Nearby Weather Stations

Station Location Temp. Windchill Dew Point Humidity Wind Precip. Elev Updated Type